sensor_id;sensor_type;location;lat;lon;timestamp;P1;durP1;ratioP1;P2;durP2;ratioP2
35891;SDS011;21993;42.672;23.296;2023-05-16T00:00:39;19.83;;;13.60;;
35891;SDS011;21993;42.672;23.296;2023-05-16T00:03:05;17.77;;;12.97;;
35891;SDS011;21993;42.672;23.296;2023-05-16T00:05:31;18.60;;;13.37;;
35891;SDS011;21993;42.672;23.296;2023-05-16T00:07:57;18.53;;;13.60;;
35891;SDS011;21993;42.672;23.296;2023-05-16T00:10:22;20.10;;;14.20;;
35891;SDS011;21993;42.672;23.296;2023-05-16T00:12:48;19.90;;;13.43;;
35891;SDS011;21993;42.672;23.296;2023-05-16T00:15:16;20.83;;;14.90;;
35891;SDS011;21993;42.672;23.296;2023-05-16T00:17:42;20.53;;;14.20;;
35891;SDS011;21993;42.672;23.296;2023-05-16T00:20:10;18.63;;;13.43;;
35891;SDS011;21993;42.672;23.296;2023-05-16T00:22:38;20.80;;;12.90;;
35891;SDS011;21993;42.672;23.296;2023-05-16T00:25:03;22.57;;;15.83;;
35891;SDS011;21993;42.672;23.296;2023-05-16T00:27:29;21.13;;;13.47;;
35891;SDS011;21993;42.672;23.296;2023-05-16T00:29:55;17.53;;;14.03;;
35891;SDS011;21993;42.672;23.296;2023-05-16T00:32:20;18.63;;;13.93;;
35891;SDS011;21993;42.672;23.296;2023-05-16T00:34:46;21.93;;;14.47;;
35891;SDS011;21993;42.672;23.296;2023-05-16T00:37:11;18.73;;;14.07;;
35891;SDS011;21993;42.672;23.296;2023-05-16T00:39:37;18.27;;;13.90;;
35891;SDS011;21993;42.672;23.296;2023-05-16T00:42:03;19.53;;;14.03;;
35891;SDS011;21993;42.672;23.296;2023-05-16T00:44:28;22.07;;;14.20;;
35891;SDS011;21993;42.672;23.296;2023-05-16T00:46:55;18.23;;;13.70;;
35891;SDS011;21993;42.672;23.296;2023-05-16T00:49:20;21.50;;;14.50;;
35891;SDS011;21993;42.672;23.296;2023-05-16T00:51:46;19.17;;;14.60;;
35891;SDS011;21993;42.672;23.296;2023-05-16T00:54:12;18.60;;;15.00;;
35891;SDS011;21993;42.672;23.296;2023-05-16T00:56:37;18.70;;;14.07;;
35891;SDS011;21993;42.672;23.296;2023-05-16T00:59:03;20.13;;;14.53;;
35891;SDS011;21993;42.672;23.296;2023-05-16T01:01:29;22.87;;;14.80;;
35891;SDS011;21993;42.672;23.296;2023-05-16T01:03:55;18.70;;;14.03;;
35891;SDS011;21993;42.672;23.296;2023-05-16T01:06:21;18.97;;;14.50;;
35891;SDS011;21993;42.672;23.296;2023-05-16T01:08:47;18.97;;;14.13;;
35891;SDS011;21993;42.672;23.296;2023-05-16T01:16:53;18.57;;;14.10;;
35891;SDS011;21993;42.672;23.296;2023-05-16T01:22:45;18.07;;;13.90;;
35891;SDS011;21993;42.672;23.296;2023-05-16T01:25:30;16.07;;;14.10;;
35891;SDS011;21993;42.672;23.296;2023-05-16T01:28:15;16.90;;;14.13;;
35891;SDS011;21993;42.672;23.296;2023-05-16T01:30:42;19.90;;;14.40;;
35891;SDS011;21993;42.672;23.296;2023-05-16T01:33:08;21.87;;;16.67;;
35891;SDS011;21993;42.672;23.296;2023-05-16T01:35:35;20.57;;;14.17;;
35891;SDS011;21993;42.672;23.296;2023-05-16T01:40:54;19.83;;;14.30;;
35891;SDS011;21993;42.672;23.296;2023-05-16T01:43:42;17.97;;;13.67;;
35891;SDS011;21993;42.672;23.296;2023-05-16T01:46:11;22.43;;;15.03;;
35891;SDS011;21993;42.672;23.296;2023-05-16T01:48:50;18.00;;;14.03;;
35891;SDS011;21993;42.672;23.296;2023-05-16T01:51:20;17.73;;;13.73;;
35891;SDS011;21993;42.672;23.296;2023-05-16T01:53:46;17.30;;;13.93;;
35891;SDS011;21993;42.672;23.296;2023-05-16T01:56:14;17.17;;;13.87;;
35891;SDS011;21993;42.672;23.296;2023-05-16T01:58:41;15.87;;;13.00;;
35891;SDS011;21993;42.672;23.296;2023-05-16T02:01:08;20.57;;;14.87;;
35891;SDS011;21993;42.672;23.296;2023-05-16T02:03:33;15.97;;;14.07;;
35891;SDS011;21993;42.672;23.296;2023-05-16T02:05:59;16.83;;;14.00;;
35891;SDS011;21993;42.672;23.296;2023-05-16T02:08:25;19.30;;;14.37;;
35891;SDS011;21993;42.672;23.296;2023-05-16T02:10:52;19.37;;;14.23;;
35891;SDS011;21993;42.672;23.296;2023-05-16T02:13:17;20.63;;;14.63;;
35891;SDS011;21993;42.672;23.296;2023-05-16T02:15:43;18.97;;;14.47;;
35891;SDS011;21993;42.672;23.296;2023-05-16T02:18:08;22.00;;;13.73;;
35891;SDS011;21993;42.672;23.296;2023-05-16T02:20:34;19.83;;;14.70;;
35891;SDS011;21993;42.672;23.296;2023-05-16T02:23:00;18.37;;;14.37;;
35891;SDS011;21993;42.672;23.296;2023-05-16T02:25:27;21.77;;;15.00;;
35891;SDS011;21993;42.672;23.296;2023-05-16T02:27:52;19.30;;;14.30;;
35891;SDS011;21993;42.672;23.296;2023-05-16T02:30:18;18.30;;;13.97;;
35891;SDS011;21993;42.672;23.296;2023-05-16T02:32:43;18.57;;;14.70;;
35891;SDS011;21993;42.672;23.296;2023-05-16T02:35:09;18.33;;;14.83;;
35891;SDS011;21993;42.672;23.296;2023-05-16T02:37:35;21.90;;;15.97;;
35891;SDS011;21993;42.672;23.296;2023-05-16T02:40:00;18.47;;;14.57;;
35891;SDS011;21993;42.672;23.296;2023-05-16T02:42:26;24.60;;;16.03;;
35891;SDS011;21993;42.672;23.296;2023-05-16T02:44:52;18.20;;;14.67;;
35891;SDS011;21993;42.672;23.296;2023-05-16T02:47:17;22.93;;;16.27;;
35891;SDS011;21993;42.672;23.296;2023-05-16T02:49:42;19.37;;;15.30;;
35891;SDS011;21993;42.672;23.296;2023-05-16T02:52:08;22.83;;;15.83;;
35891;SDS011;21993;42.672;23.296;2023-05-16T02:54:34;24.20;;;15.70;;
35891;SDS011;21993;42.672;23.296;2023-05-16T02:56:59;21.27;;;14.83;;
35891;SDS011;21993;42.672;23.296;2023-05-16T02:59:25;20.37;;;15.87;;
35891;SDS011;21993;42.672;23.296;2023-05-16T03:01:50;23.67;;;15.67;;
35891;SDS011;21993;42.672;23.296;2023-05-16T03:04:16;20.47;;;15.00;;
35891;SDS011;21993;42.672;23.296;2023-05-16T03:06:42;23.80;;;15.17;;
35891;SDS011;21993;42.672;23.296;2023-05-16T03:09:08;21.73;;;15.93;;
35891;SDS011;21993;42.672;23.296;2023-05-16T03:11:33;25.20;;;16.17;;
35891;SDS011;21993;42.672;23.296;2023-05-16T03:13:58;19.30;;;15.70;;
35891;SDS011;21993;42.672;23.296;2023-05-16T03:16:24;22.03;;;16.30;;
35891;SDS011;21993;42.672;23.296;2023-05-16T03:18:50;21.50;;;15.43;;
35891;SDS011;21993;42.672;23.296;2023-05-16T03:21:15;23.83;;;15.80;;
35891;SDS011;21993;42.672;23.296;2023-05-16T03:23:40;19.70;;;15.67;;
35891;SDS011;21993;42.672;23.296;2023-05-16T03:26:06;21.93;;;15.97;;
35891;SDS011;21993;42.672;23.296;2023-05-16T03:28:31;18.30;;;14.73;;
35891;SDS011;21993;42.672;23.296;2023-05-16T03:30:57;23.27;;;16.93;;
35891;SDS011;21993;42.672;23.296;2023-05-16T03:33:22;24.10;;;16.23;;
35891;SDS011;21993;42.672;23.296;2023-05-16T03:35:48;21.63;;;15.97;;
35891;SDS011;21993;42.672;23.296;2023-05-16T03:38:14;21.10;;;16.17;;
35891;SDS011;21993;42.672;23.296;2023-05-16T03:40:41;23.63;;;16.97;;
35891;SDS011;21993;42.672;23.296;2023-05-16T03:43:06;20.43;;;16.77;;
35891;SDS011;21993;42.672;23.296;2023-05-16T03:45:31;24.33;;;15.97;;
35891;SDS011;21993;42.672;23.296;2023-05-16T03:47:57;28.37;;;19.30;;
35891;SDS011;21993;42.672;23.296;2023-05-16T03:50:22;22.30;;;17.77;;
35891;SDS011;21993;42.672;23.296;2023-05-16T03:52:48;18.47;;;16.23;;
35891;SDS011;21993;42.672;23.296;2023-05-16T03:55:14;20.43;;;16.10;;
35891;SDS011;21993;42.672;23.296;2023-05-16T03:57:40;20.47;;;15.03;;
35891;SDS011;21993;42.672;23.296;2023-05-16T04:00:07;21.07;;;14.87;;
35891;SDS011;21993;42.672;23.296;2023-05-16T04:02:35;19.37;;;14.53;;
35891;SDS011;21993;42.672;23.296;2023-05-16T04:05:00;21.53;;;15.17;;
35891;SDS011;21993;42.672;23.296;2023-05-16T04:07:25;20.07;;;15.07;;
35891;SDS011;21993;42.672;23.296;2023-05-16T04:09:52;21.10;;;15.53;;
35891;SDS011;21993;42.672;23.296;2023-05-16T04:12:18;23.03;;;16.10;;
35891;SDS011;21993;42.672;23.296;2023-05-16T04:14:44;20.03;;;15.80;;
35891;SDS011;21993;42.672;23.296;2023-05-16T04:17:09;26.10;;;17.80;;
35891;SDS011;21993;42.672;23.296;2023-05-16T04:19:36;24.13;;;16.20;;
35891;SDS011;21993;42.672;23.296;2023-05-16T04:22:01;28.50;;;16.27;;
35891;SDS011;21993;42.672;23.296;2023-05-16T04:24:27;23.37;;;16.10;;
35891;SDS011;21993;42.672;23.296;2023-05-16T04:26:53;24.00;;;18.27;;
35891;SDS011;21993;42.672;23.296;2023-05-16T04:29:19;30.90;;;18.50;;
35891;SDS011;21993;42.672;23.296;2023-05-16T04:31:45;25.37;;;16.60;;
35891;SDS011;21993;42.672;23.296;2023-05-16T04:34:10;24.73;;;17.83;;
35891;SDS011;21993;42.672;23.296;2023-05-16T04:36:37;19.53;;;15.60;;
35891;SDS011;21993;42.672;23.296;2023-05-16T04:39:02;24.00;;;16.97;;
35891;SDS011;21993;42.672;23.296;2023-05-16T04:41:28;32.83;;;20.60;;
35891;SDS011;21993;42.672;23.296;2023-05-16T04:43:53;34.70;;;21.87;;
35891;SDS011;21993;42.672;23.296;2023-05-16T04:46:19;27.00;;;18.43;;
35891;SDS011;21993;42.672;23.296;2023-05-16T04:48:44;24.50;;;18.57;;
35891;SDS011;21993;42.672;23.296;2023-05-16T04:51:10;26.40;;;15.83;;
35891;SDS011;21993;42.672;23.296;2023-05-16T04:53:36;32.57;;;19.60;;
35891;SDS011;21993;42.672;23.296;2023-05-16T04:56:01;22.77;;;15.97;;
35891;SDS011;21993;42.672;23.296;2023-05-16T04:58:26;21.43;;;14.17;;
35891;SDS011;21993;42.672;23.296;2023-05-16T05:00:52;17.37;;;12.90;;
35891;SDS011;21993;42.672;23.296;2023-05-16T05:03:19;17.60;;;12.87;;
35891;SDS011;21993;42.672;23.296;2023-05-16T05:05:45;20.33;;;14.07;;
35891;SDS011;21993;42.672;23.296;2023-05-16T05:08:11;19.00;;;13.17;;
35891;SDS011;21993;42.672;23.296;2023-05-16T05:10:37;14.20;;;12.53;;
35891;SDS011;21993;42.672;23.296;2023-05-16T05:13:02;22.03;;;13.97;;
35891;SDS011;21993;42.672;23.296;2023-05-16T05:15:28;21.00;;;13.57;;
35891;SDS011;21993;42.672;23.296;2023-05-16T05:17:53;17.80;;;14.03;;
35891;SDS011;21993;42.672;23.296;2023-05-16T05:20:18;20.53;;;13.47;;
35891;SDS011;21993;42.672;23.296;2023-05-16T05:22:44;17.47;;;12.70;;
35891;SDS011;21993;42.672;23.296;2023-05-16T05:25:09;17.23;;;11.63;;
35891;SDS011;21993;42.672;23.296;2023-05-16T05:27:35;16.47;;;12.10;;
35891;SDS011;21993;42.672;23.296;2023-05-16T05:30:01;21.07;;;11.77;;
35891;SDS011;21993;42.672;23.296;2023-05-16T05:32:27;18.07;;;11.30;;
35891;SDS011;21993;42.672;23.296;2023-05-16T05:34:53;16.30;;;10.93;;
35891;SDS011;21993;42.672;23.296;2023-05-16T05:37:18;14.50;;;10.80;;
35891;SDS011;21993;42.672;23.296;2023-05-16T05:39:44;21.23;;;11.27;;
35891;SDS011;21993;42.672;23.296;2023-05-16T05:42:10;18.03;;;11.37;;
35891;SDS011;21993;42.672;23.296;2023-05-16T05:44:36;13.40;;;10.83;;
35891;SDS011;21993;42.672;23.296;2023-05-16T05:47:02;14.57;;;12.33;;
35891;SDS011;21993;42.672;23.296;2023-05-16T05:49:27;15.90;;;10.97;;
35891;SDS011;21993;42.672;23.296;2023-05-16T05:51:53;16.20;;;12.10;;
35891;SDS011;21993;42.672;23.296;2023-05-16T05:54:19;19.17;;;12.07;;
35891;SDS011;21993;42.672;23.296;2023-05-16T05:56:44;17.50;;;11.87;;
35891;SDS011;21993;42.672;23.296;2023-05-16T05:59:10;16.30;;;11.00;;
35891;SDS011;21993;42.672;23.296;2023-05-16T06:01:36;20.40;;;12.50;;
35891;SDS011;21993;42.672;23.296;2023-05-16T06:04:01;15.43;;;11.53;;
35891;SDS011;21993;42.672;23.296;2023-05-16T06:06:27;16.27;;;10.73;;
35891;SDS011;21993;42.672;23.296;2023-05-16T06:08:53;14.83;;;11.23;;
35891;SDS011;21993;42.672;23.296;2023-05-16T06:11:18;14.37;;;11.63;;
35891;SDS011;21993;42.672;23.296;2023-05-16T06:13:44;17.20;;;12.00;;
35891;SDS011;21993;42.672;23.296;2023-05-16T06:16:09;15.53;;;11.33;;
35891;SDS011;21993;42.672;23.296;2023-05-16T06:18:35;19.60;;;11.60;;
35891;SDS011;21993;42.672;23.296;2023-05-16T06:21:00;17.60;;;11.80;;
35891;SDS011;21993;42.672;23.296;2023-05-16T06:23:25;16.47;;;12.33;;
35891;SDS011;21993;42.672;23.296;2023-05-16T06:25:51;19.63;;;11.63;;
35891;SDS011;21993;42.672;23.296;2023-05-16T06:28:17;18.37;;;10.87;;
35891;SDS011;21993;42.672;23.296;2023-05-16T06:30:42;13.97;;;10.60;;
35891;SDS011;21993;42.672;23.296;2023-05-16T06:33:07;13.00;;;9.23;;
35891;SDS011;21993;42.672;23.296;2023-05-16T06:35:33;13.20;;;9.80;;
35891;SDS011;21993;42.672;23.296;2023-05-16T06:37:58;12.00;;;9.10;;
35891;SDS011;21993;42.672;23.296;2023-05-16T06:40:24;11.30;;;9.37;;
35891;SDS011;21993;42.672;23.296;2023-05-16T06:42:49;17.30;;;9.27;;
35891;SDS011;21993;42.672;23.296;2023-05-16T06:45:14;15.77;;;9.20;;
35891;SDS011;21993;42.672;23.296;2023-05-16T06:47:40;13.70;;;8.90;;
35891;SDS011;21993;42.672;23.296;2023-05-16T06:50:06;13.10;;;8.63;;
35891;SDS011;21993;42.672;23.296;2023-05-16T06:52:31;11.27;;;7.80;;
35891;SDS011;21993;42.672;23.296;2023-05-16T06:54:57;14.57;;;8.33;;
35891;SDS011;21993;42.672;23.296;2023-05-16T06:57:22;13.87;;;8.50;;
35891;SDS011;21993;42.672;23.296;2023-05-16T06:59:48;11.70;;;8.07;;
35891;SDS011;21993;42.672;23.296;2023-05-16T07:02:13;9.67;;;8.00;;
35891;SDS011;21993;42.672;23.296;2023-05-16T07:04:38;11.40;;;7.47;;
35891;SDS011;21993;42.672;23.296;2023-05-16T07:07:04;11.77;;;8.67;;
35891;SDS011;21993;42.672;23.296;2023-05-16T07:09:31;10.27;;;8.30;;
35891;SDS011;21993;42.672;23.296;2023-05-16T07:11:57;12.07;;;8.50;;
35891;SDS011;21993;42.672;23.296;2023-05-16T07:14:22;11.57;;;8.47;;
35891;SDS011;21993;42.672;23.296;2023-05-16T07:16:47;11.83;;;8.63;;
35891;SDS011;21993;42.672;23.296;2023-05-16T07:19:13;8.57;;;7.33;;
35891;SDS011;21993;42.672;23.296;2023-05-16T07:21:38;15.70;;;8.77;;
35891;SDS011;21993;42.672;23.296;2023-05-16T07:24:04;16.20;;;8.63;;
35891;SDS011;21993;42.672;23.296;2023-05-16T07:26:30;10.90;;;7.90;;
35891;SDS011;21993;42.672;23.296;2023-05-16T07:28:56;10.63;;;8.57;;
35891;SDS011;21993;42.672;23.296;2023-05-16T07:31:21;13.60;;;8.50;;
35891;SDS011;21993;42.672;23.296;2023-05-16T07:33:48;12.10;;;8.93;;
35891;SDS011;21993;42.672;23.296;2023-05-16T07:36:13;10.73;;;8.93;;
35891;SDS011;21993;42.672;23.296;2023-05-16T07:38:39;14.83;;;9.10;;
35891;SDS011;21993;42.672;23.296;2023-05-16T07:41:04;10.07;;;8.27;;
35891;SDS011;21993;42.672;23.296;2023-05-16T07:43:30;18.63;;;8.87;;
35891;SDS011;21993;42.672;23.296;2023-05-16T07:45:56;10.73;;;8.33;;
35891;SDS011;21993;42.672;23.296;2023-05-16T07:48:21;14.97;;;8.87;;
35891;SDS011;21993;42.672;23.296;2023-05-16T07:50:47;11.63;;;8.73;;
35891;SDS011;21993;42.672;23.296;2023-05-16T07:53:12;15.70;;;9.33;;
35891;SDS011;21993;42.672;23.296;2023-05-16T07:55:38;13.70;;;9.17;;
35891;SDS011;21993;42.672;23.296;2023-05-16T07:58:03;11.10;;;8.80;;
35891;SDS011;21993;42.672;23.296;2023-05-16T08:00:29;11.70;;;8.53;;
35891;SDS011;21993;42.672;23.296;2023-05-16T08:02:55;11.23;;;8.27;;
35891;SDS011;21993;42.672;23.296;2023-05-16T08:05:21;13.43;;;9.23;;
35891;SDS011;21993;42.672;23.296;2023-05-16T08:07:47;13.23;;;9.07;;
35891;SDS011;21993;42.672;23.296;2023-05-16T08:10:13;15.17;;;8.43;;
35891;SDS011;21993;42.672;23.296;2023-05-16T08:12:38;13.60;;;8.67;;
35891;SDS011;21993;42.672;23.296;2023-05-16T08:15:04;12.90;;;8.97;;
35891;SDS011;21993;42.672;23.296;2023-05-16T08:17:30;10.87;;;8.87;;
35891;SDS011;21993;42.672;23.296;2023-05-16T08:19:56;14.80;;;9.50;;
35891;SDS011;21993;42.672;23.296;2023-05-16T08:22:23;17.77;;;9.70;;
35891;SDS011;21993;42.672;23.296;2023-05-16T08:24:49;11.47;;;8.90;;
35891;SDS011;21993;42.672;23.296;2023-05-16T08:27:15;13.23;;;9.10;;
35891;SDS011;21993;42.672;23.296;2023-05-16T08:29:40;12.57;;;9.47;;
35891;SDS011;21993;42.672;23.296;2023-05-16T08:32:07;13.73;;;9.57;;
35891;SDS011;21993;42.672;23.296;2023-05-16T08:34:33;12.77;;;7.93;;
35891;SDS011;21993;42.672;23.296;2023-05-16T08:36:59;10.53;;;8.27;;
35891;SDS011;21993;42.672;23.296;2023-05-16T08:39:24;13.57;;;8.47;;
35891;SDS011;21993;42.672;23.296;2023-05-16T08:41:50;10.57;;;8.27;;
35891;SDS011;21993;42.672;23.296;2023-05-16T08:44:15;14.97;;;8.60;;
35891;SDS011;21993;42.672;23.296;2023-05-16T08:46:49;13.87;;;8.53;;
35891;SDS011;21993;42.672;23.296;2023-05-16T08:49:16;15.23;;;8.33;;
35891;SDS011;21993;42.672;23.296;2023-05-16T08:51:42;15.87;;;8.60;;
35891;SDS011;21993;42.672;23.296;2023-05-16T08:54:11;13.63;;;7.40;;
35891;SDS011;21993;42.672;23.296;2023-05-16T08:56:38;11.67;;;8.20;;
35891;SDS011;21993;42.672;23.296;2023-05-16T08:59:05;13.07;;;7.90;;
35891;SDS011;21993;42.672;23.296;2023-05-16T09:01:31;12.87;;;8.87;;
35891;SDS011;21993;42.672;23.296;2023-05-16T09:03:57;15.70;;;7.67;;
35891;SDS011;21993;42.672;23.296;2023-05-16T09:06:24;9.30;;;7.43;;
35891;SDS011;21993;42.672;23.296;2023-05-16T09:08:50;14.87;;;7.87;;
35891;SDS011;21993;42.672;23.296;2023-05-16T09:11:17;12.13;;;8.53;;
35891;SDS011;21993;42.672;23.296;2023-05-16T09:13:43;17.80;;;7.67;;
35891;SDS011;21993;42.672;23.296;2023-05-16T09:16:09;13.10;;;6.87;;
35891;SDS011;21993;42.672;23.296;2023-05-16T09:18:39;8.87;;;7.20;;
35891;SDS011;21993;42.672;23.296;2023-05-16T09:21:07;13.30;;;7.30;;
35891;SDS011;21993;42.672;23.296;2023-05-16T09:23:34;13.07;;;7.57;;
35891;SDS011;21993;42.672;23.296;2023-05-16T09:26:00;11.50;;;7.47;;
35891;SDS011;21993;42.672;23.296;2023-05-16T09:28:26;13.07;;;7.40;;
35891;SDS011;21993;42.672;23.296;2023-05-16T09:30:52;11.83;;;7.23;;
35891;SDS011;21993;42.672;23.296;2023-05-16T09:33:23;11.70;;;7.33;;
35891;SDS011;21993;42.672;23.296;2023-05-16T09:36:00;9.40;;;7.33;;
35891;SDS011;21993;42.672;23.296;2023-05-16T09:38:28;10.53;;;6.60;;
35891;SDS011;21993;42.672;23.296;2023-05-16T09:40:54;12.33;;;8.27;;
35891;SDS011;21993;42.672;23.296;2023-05-16T09:43:24;11.17;;;6.90;;
35891;SDS011;21993;42.672;23.296;2023-05-16T09:45:51;9.63;;;7.33;;
35891;SDS011;21993;42.672;23.296;2023-05-16T09:48:17;16.37;;;8.27;;
35891;SDS011;21993;42.672;23.296;2023-05-16T09:50:48;12.80;;;8.00;;
35891;SDS011;21993;42.672;23.296;2023-05-16T09:53:17;15.00;;;8.03;;
35891;SDS011;21993;42.672;23.296;2023-05-16T09:55:55;13.87;;;8.50;;
35891;SDS011;21993;42.672;23.296;2023-05-16T09:58:27;14.93;;;7.97;;
35891;SDS011;21993;42.672;23.296;2023-05-16T10:00:53;11.53;;;7.93;;
35891;SDS011;21993;42.672;23.296;2023-05-16T10:03:21;12.53;;;7.67;;
35891;SDS011;21993;42.672;23.296;2023-05-16T10:05:47;12.53;;;8.03;;
35891;SDS011;21993;42.672;23.296;2023-05-16T10:08:13;10.27;;;8.27;;
35891;SDS011;21993;42.672;23.296;2023-05-16T10:10:40;11.63;;;7.67;;
35891;SDS011;21993;42.672;23.296;2023-05-16T10:13:06;14.10;;;8.77;;
35891;SDS011;21993;42.672;23.296;2023-05-16T10:15:32;13.17;;;8.30;;
35891;SDS011;21993;42.672;23.296;2023-05-16T10:18:01;12.40;;;8.47;;
35891;SDS011;21993;42.672;23.296;2023-05-16T10:20:29;11.03;;;8.07;;
35891;SDS011;21993;42.672;23.296;2023-05-16T10:22:55;12.20;;;7.90;;
35891;SDS011;21993;42.672;23.296;2023-05-16T10:25:28;15.80;;;8.90;;
35891;SDS011;21993;42.672;23.296;2023-05-16T10:27:58;13.47;;;8.27;;
35891;SDS011;21993;42.672;23.296;2023-05-16T10:30:24;13.07;;;9.83;;
35891;SDS011;21993;42.672;23.296;2023-05-16T10:32:51;8.47;;;7.60;;
35891;SDS011;21993;42.672;23.296;2023-05-16T10:35:17;16.77;;;9.10;;
35891;SDS011;21993;42.672;23.296;2023-05-16T10:37:43;11.40;;;8.23;;
35891;SDS011;21993;42.672;23.296;2023-05-16T10:40:10;11.47;;;8.50;;
35891;SDS011;21993;42.672;23.296;2023-05-16T10:42:36;11.97;;;8.00;;
35891;SDS011;21993;42.672;23.296;2023-05-16T10:45:34;19.43;;;8.37;;
35891;SDS011;21993;42.672;23.296;2023-05-16T10:48:00;10.73;;;8.37;;
35891;SDS011;21993;42.672;23.296;2023-05-16T10:56:24;11.37;;;8.37;;
35891;SDS011;21993;42.672;23.296;2023-05-16T11:01:14;12.67;;;8.80;;
35891;SDS011;21993;42.672;23.296;2023-05-16T11:06:25;13.40;;;9.17;;
35891;SDS011;21993;42.672;23.296;2023-05-16T11:11:56;10.13;;;8.40;;
35891;SDS011;21993;42.672;23.296;2023-05-16T11:14:25;11.67;;;8.57;;
35891;SDS011;21993;42.672;23.296;2023-05-16T11:17:14;12.03;;;7.93;;
35891;SDS011;21993;42.672;23.296;2023-05-16T11:19:47;11.83;;;8.17;;
35891;SDS011;21993;42.672;23.296;2023-05-16T11:27:31;11.57;;;8.00;;
35891;SDS011;21993;42.672;23.296;2023-05-16T11:32:38;12.53;;;7.63;;
35891;SDS011;21993;42.672;23.296;2023-05-16T11:35:09;13.73;;;8.23;;
35891;SDS011;21993;42.672;23.296;2023-05-16T11:37:36;14.67;;;8.57;;
35891;SDS011;21993;42.672;23.296;2023-05-16T11:40:03;18.27;;;8.50;;
35891;SDS011;21993;42.672;23.296;2023-05-16T11:42:36;17.87;;;8.90;;
35891;SDS011;21993;42.672;23.296;2023-05-16T11:45:04;12.23;;;8.80;;
35891;SDS011;21993;42.672;23.296;2023-05-16T11:47:30;15.83;;;8.83;;
35891;SDS011;21993;42.672;23.296;2023-05-16T11:49:56;15.60;;;8.53;;
35891;SDS011;21993;42.672;23.296;2023-05-16T11:52:22;14.97;;;9.03;;
35891;SDS011;21993;42.672;23.296;2023-05-16T11:54:47;12.10;;;8.70;;
35891;SDS011;21993;42.672;23.296;2023-05-16T11:57:14;14.23;;;9.53;;
35891;SDS011;21993;42.672;23.296;2023-05-16T11:59:40;14.03;;;9.17;;
35891;SDS011;21993;42.672;23.296;2023-05-16T12:02:06;10.30;;;8.37;;
35891;SDS011;21993;42.672;23.296;2023-05-16T12:04:34;12.73;;;9.37;;
35891;SDS011;21993;42.672;23.296;2023-05-16T12:07:02;11.73;;;9.37;;
35891;SDS011;21993;42.672;23.296;2023-05-16T12:09:29;13.63;;;9.23;;
35891;SDS011;21993;42.672;23.296;2023-05-16T12:11:55;11.83;;;8.97;;
35891;SDS011;21993;42.672;23.296;2023-05-16T12:14:20;13.53;;;8.50;;
35891;SDS011;21993;42.672;23.296;2023-05-16T12:16:46;14.20;;;10.57;;
35891;SDS011;21993;42.672;23.296;2023-05-16T12:19:13;15.80;;;10.93;;
35891;SDS011;21993;42.672;23.296;2023-05-16T12:21:39;15.60;;;9.00;;
35891;SDS011;21993;42.672;23.296;2023-05-16T12:24:08;12.33;;;8.70;;
35891;SDS011;21993;42.672;23.296;2023-05-16T12:26:37;12.57;;;9.43;;
35891;SDS011;21993;42.672;23.296;2023-05-16T12:29:04;18.30;;;8.20;;
35891;SDS011;21993;42.672;23.296;2023-05-16T12:31:30;15.73;;;8.40;;
35891;SDS011;21993;42.672;23.296;2023-05-16T12:34:01;13.77;;;8.50;;
35891;SDS011;21993;42.672;23.296;2023-05-16T12:36:30;12.60;;;8.97;;
35891;SDS011;21993;42.672;23.296;2023-05-16T12:39:01;12.83;;;8.77;;
35891;SDS011;21993;42.672;23.296;2023-05-16T12:41:28;14.93;;;9.73;;
35891;SDS011;21993;42.672;23.296;2023-05-16T12:44:14;11.93;;;8.20;;
35891;SDS011;21993;42.672;23.296;2023-05-16T12:46:47;12.87;;;8.50;;
35891;SDS011;21993;42.672;23.296;2023-05-16T12:49:15;12.03;;;8.27;;
35891;SDS011;21993;42.672;23.296;2023-05-16T12:51:47;11.87;;;8.67;;
35891;SDS011;21993;42.672;23.296;2023-05-16T12:54:16;15.17;;;8.67;;
35891;SDS011;21993;42.672;23.296;2023-05-16T12:56:42;11.97;;;8.60;;
35891;SDS011;21993;42.672;23.296;2023-05-16T12:59:08;14.67;;;8.13;;
35891;SDS011;21993;42.672;23.296;2023-05-16T13:01:34;16.67;;;8.30;;
35891;SDS011;21993;42.672;23.296;2023-05-16T13:04:00;10.30;;;8.20;;
35891;SDS011;21993;42.672;23.296;2023-05-16T13:06:26;15.87;;;8.87;;
35891;SDS011;21993;42.672;23.296;2023-05-16T13:08:52;12.00;;;8.57;;
35891;SDS011;21993;42.672;23.296;2023-05-16T13:11:18;14.80;;;8.50;;
35891;SDS011;21993;42.672;23.296;2023-05-16T13:13:43;16.30;;;9.70;;
35891;SDS011;21993;42.672;23.296;2023-05-16T13:16:09;17.53;;;10.33;;
35891;SDS011;21993;42.672;23.296;2023-05-16T13:18:35;15.43;;;10.17;;
35891;SDS011;21993;42.672;23.296;2023-05-16T13:21:00;18.67;;;11.23;;
35891;SDS011;21993;42.672;23.296;2023-05-16T13:23:28;17.40;;;10.90;;
35891;SDS011;21993;42.672;23.296;2023-05-16T13:25:54;23.07;;;12.37;;
35891;SDS011;21993;42.672;23.296;2023-05-16T13:28:19;21.87;;;12.87;;
35891;SDS011;21993;42.672;23.296;2023-05-16T13:30:45;23.17;;;12.33;;
35891;SDS011;21993;42.672;23.296;2023-05-16T13:33:10;17.90;;;11.67;;
35891;SDS011;21993;42.672;23.296;2023-05-16T13:35:36;17.40;;;11.27;;
35891;SDS011;21993;42.672;23.296;2023-05-16T13:38:02;20.57;;;11.63;;
35891;SDS011;21993;42.672;23.296;2023-05-16T13:40:27;20.80;;;10.90;;
35891;SDS011;21993;42.672;23.296;2023-05-16T13:42:53;18.03;;;11.70;;
35891;SDS011;21993;42.672;23.296;2023-05-16T13:45:19;22.23;;;10.97;;
35891;SDS011;21993;42.672;23.296;2023-05-16T13:47:44;18.43;;;12.57;;
35891;SDS011;21993;42.672;23.296;2023-05-16T13:50:09;20.70;;;12.67;;
35891;SDS011;21993;42.672;23.296;2023-05-16T13:52:36;24.40;;;12.57;;
35891;SDS011;21993;42.672;23.296;2023-05-16T13:55:02;21.77;;;12.93;;
35891;SDS011;21993;42.672;23.296;2023-05-16T13:57:28;22.87;;;14.40;;
35891;SDS011;21993;42.672;23.296;2023-05-16T13:59:54;23.13;;;12.47;;
35891;SDS011;21993;42.672;23.296;2023-05-16T14:02:19;22.50;;;13.47;;
35891;SDS011;21993;42.672;23.296;2023-05-16T14:04:45;20.13;;;12.57;;
35891;SDS011;21993;42.672;23.296;2023-05-16T14:07:10;18.57;;;13.13;;
35891;SDS011;21993;42.672;23.296;2023-05-16T14:09:35;23.60;;;15.37;;
35891;SDS011;21993;42.672;23.296;2023-05-16T14:12:04;17.80;;;12.87;;
35891;SDS011;21993;42.672;23.296;2023-05-16T14:14:31;21.83;;;13.97;;
35891;SDS011;21993;42.672;23.296;2023-05-16T14:16:57;19.20;;;12.73;;
35891;SDS011;21993;42.672;23.296;2023-05-16T14:19:23;29.10;;;14.17;;
35891;SDS011;21993;42.672;23.296;2023-05-16T14:21:48;25.17;;;13.93;;
35891;SDS011;21993;42.672;23.296;2023-05-16T14:24:14;26.47;;;14.20;;
35891;SDS011;21993;42.672;23.296;2023-05-16T14:26:39;22.37;;;14.57;;
35891;SDS011;21993;42.672;23.296;2023-05-16T14:29:05;22.27;;;14.67;;
35891;SDS011;21993;42.672;23.296;2023-05-16T14:31:31;17.93;;;14.37;;
35891;SDS011;21993;42.672;23.296;2023-05-16T14:33:57;29.00;;;14.57;;
35891;SDS011;21993;42.672;23.296;2023-05-16T14:36:23;21.53;;;14.07;;
35891;SDS011;21993;42.672;23.296;2023-05-16T14:38:48;22.53;;;15.13;;
35891;SDS011;21993;42.672;23.296;2023-05-16T14:41:14;21.23;;;15.07;;
35891;SDS011;21993;42.672;23.296;2023-05-16T14:43:40;19.57;;;14.47;;